createdAt,value
2024-05-09T00:00:43.549Z,8.71
2024-05-09T00:03:12.414Z,8.67
2024-05-09T00:05:40.844Z,8.63
2024-05-09T00:08:09.504Z,8.61
2024-05-09T00:10:39.161Z,8.58
2024-05-09T00:13:09.322Z,8.56
2024-05-09T00:15:37.530Z,8.51
2024-05-09T00:18:06.613Z,8.47
2024-05-09T00:20:38.988Z,8.43
2024-05-09T00:23:11.104Z,8.39
2024-05-09T00:25:40.706Z,8.35
2024-05-09T00:28:08.686Z,8.31
2024-05-09T00:30:37.312Z,8.28
2024-05-09T00:33:06.617Z,8.23
2024-05-09T00:35:36.065Z,8.23
2024-05-09T00:38:04.392Z,8.26
2024-05-09T00:40:40.008Z,8.30
2024-05-09T00:43:14.375Z,8.34
2024-05-09T00:45:44.037Z,8.37
2024-05-09T00:48:14.245Z,8.41
2024-05-09T00:50:44.942Z,8.43
2024-05-09T00:53:13.592Z,8.45
2024-05-09T00:55:41.762Z,8.45
2024-05-09T00:58:10.213Z,8.46
2024-05-09T01:00:40.223Z,8.47
2024-05-09T01:03:11.963Z,8.49
2024-05-09T01:05:42.577Z,8.48
2024-05-09T01:08:10.875Z,8.45
2024-05-09T01:10:40.830Z,8.45
2024-05-09T01:13:10.457Z,8.42
2024-05-09T01:15:38.463Z,8.38
2024-05-09T01:18:13.386Z,8.33
2024-05-09T01:20:44.289Z,8.29
2024-05-09T01:23:15.629Z,8.25
2024-05-09T01:25:44.978Z,8.20
2024-05-09T01:28:12.795Z,8.18
2024-05-09T01:30:40.511Z,8.13
2024-05-09T01:33:09.908Z,8.09
2024-05-09T01:35:41.659Z,8.04
2024-05-09T01:38:13.089Z,7.99
2024-05-09T01:40:41.143Z,7.91
2024-05-09T01:43:09.641Z,7.88
2024-05-09T01:45:41.786Z,7.84
2024-05-09T01:48:09.800Z,7.80
2024-05-09T01:50:41.661Z,7.76
2024-05-09T01:53:11.660Z,7.70
2024-05-09T01:55:39.986Z,7.65
2024-05-09T01:58:08.554Z,7.61
2024-05-09T02:00:40.793Z,7.58
2024-05-09T02:03:15.203Z,7.51
2024-05-09T02:05:45.941Z,7.45
2024-05-09T02:08:15.294Z,7.39
2024-05-09T02:10:47.407Z,7.36
2024-05-09T02:13:15.625Z,7.30
2024-05-09T02:15:43.218Z,7.24
2024-05-09T02:18:11.703Z,7.21
2024-05-09T02:20:40.526Z,7.18
2024-05-09T02:23:08.601Z,7.13
2024-05-09T02:25:37.005Z,7.11
2024-05-09T02:28:04.777Z,7.08
2024-05-09T02:30:39.970Z,7.05
2024-05-09T02:33:11.574Z,7.01
2024-05-09T02:35:41.258Z,6.99
2024-05-09T02:38:09.640Z,6.98
2024-05-09T02:40:39.190Z,6.97
2024-05-09T02:43:08.562Z,6.95
2024-05-09T02:45:37.399Z,6.93
2024-05-09T02:48:05.563Z,6.91
2024-05-09T02:50:38.467Z,6.89
2024-05-09T02:53:09.415Z,6.88
2024-05-09T02:55:38.692Z,6.87
2024-05-09T02:58:09.336Z,6.86
2024-05-09T03:00:40.402Z,6.86
2024-05-09T03:03:12.803Z,6.87
2024-05-09T03:05:43.697Z,6.89
2024-05-09T03:08:12.095Z,6.90
2024-05-09T03:10:40.119Z,6.92
2024-05-09T03:13:08.447Z,6.94
2024-05-09T03:15:36.765Z,6.94
2024-05-09T03:18:05.643Z,6.95
2024-05-09T03:20:35.513Z,6.96
2024-05-09T03:23:06.187Z,6.98
2024-05-09T03:25:34.239Z,7.00
2024-05-09T03:28:02.431Z,7.02
2024-05-09T03:30:39.014Z,7.04
2024-05-09T03:33:15.681Z,7.07
2024-05-09T03:35:44.026Z,7.11
2024-05-09T03:38:11.848Z,7.14
2024-05-09T03:40:46.489Z,7.18
2024-05-09T03:43:14.894Z,7.22
2024-05-09T03:45:45.135Z,7.28
2024-05-09T03:48:13.118Z,7.35
2024-05-09T03:50:41.097Z,7.40
2024-05-09T03:53:12.404Z,7.45
2024-05-09T03:55:40.175Z,7.52
2024-05-09T03:58:08.464Z,7.59
2024-05-09T04:00:38.930Z,7.66
2024-05-09T04:03:10.555Z,7.73
2024-05-09T04:05:41.469Z,7.81
2024-05-09T04:08:10.999Z,7.88
2024-05-09T04:10:39.249Z,7.94
2024-05-09T04:13:06.745Z,7.98
2024-05-09T04:15:34.732Z,8.01
2024-05-09T04:18:02.830Z,8.08
2024-05-09T04:20:37.788Z,8.16
2024-05-09T04:23:13.531Z,8.24
2024-05-09T04:25:42.035Z,8.33
2024-05-09T04:28:10.091Z,8.41
2024-05-09T04:30:40.362Z,8.48
2024-05-09T04:33:11.840Z,8.52
2024-05-09T04:35:42.974Z,8.58
2024-05-09T04:38:11.742Z,8.65
2024-05-09T04:40:39.129Z,8.70
2024-05-09T04:43:13.497Z,8.72
2024-05-09T04:45:41.455Z,8.76
2024-05-09T04:48:09.656Z,8.83
2024-05-09T04:50:39.224Z,8.89
2024-05-09T04:53:09.483Z,8.95
2024-05-09T04:55:39.438Z,8.99
2024-05-09T04:58:11.456Z,9.04
2024-05-09T05:00:40.613Z,9.11
2024-05-09T05:03:12.785Z,9.14
2024-05-09T05:05:44.046Z,9.14
2024-05-09T05:08:13.906Z,9.16
2024-05-09T05:10:42.492Z,9.19
2024-05-09T05:13:20.612Z,9.24
2024-05-09T05:15:50.183Z,9.27
2024-05-09T05:18:17.845Z,9.28
2024-05-09T05:20:45.951Z,9.34
2024-05-09T05:23:15.275Z,9.37
2024-05-09T05:25:43.080Z,9.42
2024-05-09T05:28:10.870Z,9.48
2024-05-09T05:30:40.370Z,9.54
2024-05-09T05:33:10.288Z,9.57
2024-05-09T05:35:38.040Z,9.58
2024-05-09T05:38:09.184Z,9.59
2024-05-09T05:40:38.631Z,9.59
2024-05-09T05:43:11.028Z,9.63
2024-05-09T05:45:39.414Z,9.71
2024-05-09T05:48:07.770Z,9.79
2024-05-09T05:50:38.165Z,9.87
2024-05-09T05:53:07.820Z,9.93
2024-05-09T05:55:39.953Z,9.97
2024-05-09T05:58:11.398Z,10.00
2024-05-09T06:00:41.203Z,10.01
2024-05-09T06:03:10.624Z,10.03
2024-05-09T06:05:46.212Z,10.09
2024-05-09T06:08:14.607Z,10.16
2024-05-09T06:10:42.649Z,10.17
2024-05-09T06:13:13.751Z,10.16
2024-05-09T06:15:42.717Z,10.21
2024-05-09T06:18:12.149Z,10.28
2024-05-09T06:20:42.803Z,10.36
2024-05-09T06:23:11.694Z,10.42
2024-05-09T06:25:39.859Z,10.46
2024-05-09T06:28:07.351Z,10.53
2024-05-09T06:30:41.964Z,10.66
2024-05-09T06:33:13.192Z,10.78
2024-05-09T06:35:44.476Z,10.89
2024-05-09T06:38:12.642Z,11.01
2024-05-09T06:40:42.578Z,11.07
2024-05-09T06:43:15.376Z,11.12
2024-05-09T06:45:45.940Z,11.18
2024-05-09T06:48:13.818Z,11.25
2024-05-09T06:50:41.612Z,11.35
2024-05-09T06:53:09.828Z,11.46
2024-05-09T06:55:37.845Z,11.54
2024-05-09T06:58:06.940Z,11.62
2024-05-09T07:00:39.365Z,11.70
2024-05-09T07:03:10.808Z,11.76
2024-05-09T07:05:39.810Z,11.82
2024-05-09T07:08:08.054Z,11.86
2024-05-09T07:10:36.561Z,11.86
2024-05-09T07:13:09.801Z,11.92
2024-05-09T07:15:37.647Z,12.00
2024-05-09T07:18:12.137Z,12.01
2024-05-09T07:20:40.154Z,11.98
2024-05-09T07:23:11.750Z,12.03
2024-05-09T07:25:40.312Z,12.10
2024-05-09T07:28:18.245Z,12.08
2024-05-09T07:30:45.991Z,11.95
2024-05-09T07:33:22.199Z,11.89
2024-05-09T07:35:52.136Z,11.90
2024-05-09T07:38:19.997Z,11.91
2024-05-09T07:40:48.367Z,11.90
2024-05-09T07:43:16.355Z,11.89
2024-05-09T07:45:51.857Z,11.82
2024-05-09T07:52:37.883Z,11.91
2024-05-09T07:53:48.814Z,11.96
2024-05-09T07:56:21.749Z,12.05
2024-05-09T07:58:51.858Z,12.15
2024-05-09T08:01:21.050Z,12.31
2024-05-09T08:03:50.155Z,12.41
2024-05-09T08:06:18.729Z,12.46
2024-05-09T08:08:47.473Z,12.55
2024-05-09T08:11:15.196Z,12.61
2024-05-09T08:13:43.586Z,12.66
2024-05-09T08:16:11.306Z,12.63
2024-05-09T08:18:39.995Z,12.55
2024-05-09T08:21:07.970Z,12.59
2024-05-09T08:23:36.348Z,12.64
2024-05-09T08:26:04.581Z,12.62
2024-05-09T08:28:32.147Z,12.62
2024-05-09T08:31:00.517Z,12.72
2024-05-09T08:33:30.451Z,12.88
2024-05-09T08:35:58.412Z,12.94
2024-05-09T08:38:26.342Z,12.96
2024-05-09T08:40:53.904Z,12.96
2024-05-09T08:43:21.421Z,12.82
2024-05-09T08:48:17.151Z,12.79
2024-05-09T08:50:45.591Z,12.96
2024-05-09T08:53:15.383Z,13.18
2024-05-09T08:55:44.118Z,13.32
2024-05-09T08:58:17.259Z,13.51
2024-05-09T09:00:45.935Z,13.86
2024-05-09T09:03:18.752Z,14.17
2024-05-09T09:05:59.527Z,14.41
2024-05-09T09:08:27.033Z,14.64
2024-05-09T09:11:00.613Z,14.82
2024-05-09T09:13:28.500Z,14.92
2024-05-09T09:15:59.512Z,14.98
2024-05-09T09:18:28.051Z,15.09
2024-05-09T09:20:56.142Z,15.20
2024-05-09T09:23:23.508Z,15.23
2024-05-09T09:25:52.173Z,15.14
2024-05-09T09:28:22.786Z,14.81
2024-05-09T09:30:50.261Z,14.76
2024-05-09T09:33:19.287Z,14.91
2024-05-09T09:35:47.039Z,15.10
2024-05-09T09:38:14.810Z,15.31
2024-05-09T09:40:46.838Z,15.52
2024-05-09T09:43:21.543Z,15.72
2024-05-09T09:45:52.855Z,15.74
2024-05-09T09:48:22.392Z,15.73
2024-05-09T09:50:53.526Z,15.87
2024-05-09T09:53:22.656Z,16.04
2024-05-09T09:55:51.521Z,16.25
2024-05-09T09:58:19.226Z,16.48
2024-05-09T10:00:47.616Z,16.74
2024-05-09T10:03:15.240Z,16.76
2024-05-09T10:05:45.354Z,16.58
2024-05-09T10:08:14.891Z,16.75
2024-05-09T10:10:46.181Z,17.14
2024-05-09T10:13:13.915Z,17.47
2024-05-09T10:15:54.844Z,17.50
2024-05-09T10:18:28.140Z,17.56
2024-05-09T10:20:59.541Z,17.77
2024-05-09T10:23:27.692Z,18.21
2024-05-09T10:26:05.394Z,18.59
2024-05-09T10:28:37.885Z,18.62
2024-05-09T10:31:10.290Z,18.53
2024-05-09T10:33:39.509Z,18.73
2024-05-09T10:36:24.245Z,18.95
2024-05-09T10:38:53.127Z,19.20
2024-05-09T10:41:21.713Z,19.35
2024-05-09T10:43:49.684Z,19.29
2024-05-09T10:46:21.403Z,19.20
2024-05-09T10:48:50.002Z,19.22
2024-05-09T10:51:19.406Z,19.41
2024-05-09T10:53:48.242Z,19.79
2024-05-09T10:56:16.436Z,20.25
2024-05-09T10:58:45.228Z,20.82
2024-05-09T11:01:13.279Z,21.35
2024-05-09T11:03:41.706Z,21.52
2024-05-09T11:06:11.150Z,21.44
2024-05-09T11:08:38.450Z,21.68
2024-05-09T11:11:08.111Z,21.94
2024-05-09T11:13:37.880Z,21.96
2024-05-09T11:16:07.114Z,21.95
2024-05-09T11:18:38.148Z,22.21
2024-05-09T11:21:12.197Z,22.63
2024-05-09T11:23:39.944Z,22.88
2024-05-09T11:26:07.404Z,22.98
2024-05-09T11:28:36.926Z,23.10
2024-05-09T11:31:09.385Z,23.10
2024-05-09T11:33:43.604Z,22.98
2024-05-09T11:36:11.235Z,23.04
2024-05-09T11:38:39.560Z,23.28
2024-05-09T11:41:07.019Z,23.34
2024-05-09T11:43:34.492Z,23.14
2024-05-09T11:46:03.435Z,22.75
2024-05-09T11:48:32.506Z,22.52
2024-05-09T11:51:00.211Z,22.31
2024-05-09T11:53:28.019Z,22.58
2024-05-09T11:55:55.544Z,22.90
2024-05-09T11:58:24.781Z,23.26
2024-05-09T12:00:52.577Z,23.28
2024-05-09T12:03:20.643Z,22.58
2024-05-09T12:05:48.372Z,22.12
2024-05-09T12:08:15.921Z,22.11
2024-05-09T12:10:43.545Z,22.15
2024-05-09T12:13:11.391Z,22.30
2024-05-09T12:15:39.344Z,22.13
2024-05-09T12:18:08.207Z,21.36
2024-05-09T12:20:39.050Z,21.18
2024-05-09T12:23:08.863Z,21.71
2024-05-09T12:25:39.192Z,22.40
2024-05-09T12:28:07.904Z,23.08
2024-05-09T12:30:40.212Z,23.38
2024-05-09T12:33:13.036Z,23.41
2024-05-09T12:35:44.103Z,23.85
2024-05-09T12:38:15.305Z,24.27
2024-05-09T12:40:43.057Z,24.56
2024-05-09T12:43:11.670Z,24.55
2024-05-09T12:45:40.169Z,24.34
2024-05-09T12:48:11.675Z,23.94
2024-05-09T12:50:40.571Z,23.51
2024-05-09T12:53:08.190Z,23.47
2024-05-09T12:55:44.124Z,23.55
2024-05-09T12:58:17.683Z,23.56
2024-05-09T13:00:46.564Z,23.59
2024-05-09T13:03:15.635Z,23.71
2024-05-09T13:05:46.739Z,23.74
2024-05-09T13:08:14.183Z,23.24
2024-05-09T13:10:42.159Z,22.93
2024-05-09T13:13:10.388Z,23.08
2024-05-09T13:15:38.415Z,23.55
2024-05-09T13:18:06.372Z,24.03
2024-05-09T13:20:36.227Z,24.33
2024-05-09T13:23:05.649Z,24.51
2024-05-09T13:25:37.692Z,24.40
2024-05-09T13:28:06.994Z,23.66
2024-05-09T13:30:40.107Z,22.57
2024-05-09T13:33:11.582Z,22.54
2024-05-09T13:35:47.495Z,22.89
2024-05-09T13:38:18.627Z,23.47
2024-05-09T13:40:46.891Z,24.06
2024-05-09T13:43:15.146Z,24.40
2024-05-09T13:45:42.897Z,24.69
2024-05-09T13:48:11.450Z,24.94
2024-05-09T13:50:39.298Z,25.11
2024-05-09T13:53:08.107Z,25.11
2024-05-09T13:55:37.731Z,25.01
2024-05-09T13:58:05.480Z,24.88
2024-05-09T14:00:43.903Z,25.02
2024-05-09T14:03:16.743Z,25.32
2024-05-09T14:05:45.855Z,25.56
2024-05-09T14:08:15.322Z,25.71
2024-05-09T14:10:47.068Z,25.99
2024-05-09T14:13:14.895Z,26.17
2024-05-09T14:15:43.356Z,25.89
2024-05-09T14:18:13.510Z,25.54
2024-05-09T14:20:42.611Z,24.98
2024-05-09T14:23:10.900Z,24.62
2024-05-09T14:25:42.103Z,24.47
2024-05-09T14:28:12.712Z,24.32
2024-05-09T14:30:41.464Z,24.36
2024-05-09T14:33:09.729Z,24.38
2024-05-09T14:35:38.705Z,24.40
2024-05-09T14:38:07.725Z,24.42
2024-05-09T14:40:41.558Z,24.39
2024-05-09T14:43:11.730Z,24.16
2024-05-09T14:45:39.864Z,23.95
2024-05-09T14:48:08.472Z,23.93
2024-05-09T14:50:39.035Z,23.82
2024-05-09T14:53:08.816Z,23.89
2024-05-09T14:55:37.744Z,24.06
2024-05-09T14:58:07.006Z,24.27
2024-05-09T15:00:39.435Z,24.43
2024-05-09T15:03:09.372Z,24.41
2024-05-09T15:05:37.288Z,24.36
2024-05-09T15:08:08.200Z,24.34
2024-05-09T15:10:37.325Z,24.13
2024-05-09T15:13:07.193Z,23.92
2024-05-09T15:15:37.370Z,23.68
2024-05-09T15:18:05.841Z,23.57
2024-05-09T15:20:36.443Z,23.63
2024-05-09T15:23:07.064Z,23.84
2024-05-09T15:25:35.457Z,24.03
2024-05-09T15:28:04.519Z,24.35
2024-05-09T15:30:33.821Z,24.52
2024-05-09T15:33:06.966Z,24.44
2024-05-09T15:35:36.220Z,24.46
2024-05-09T15:38:04.699Z,24.57
2024-05-09T15:40:39.029Z,24.76
2024-05-09T15:43:10.944Z,25.04
2024-05-09T15:45:40.625Z,25.27
2024-05-09T15:48:10.101Z,25.56
2024-05-09T15:50:41.034Z,25.63
2024-05-09T15:53:11.539Z,25.32
2024-05-09T15:55:40.667Z,25.01
2024-05-09T15:58:08.400Z,24.61
2024-05-09T16:00:39.844Z,24.25
2024-05-09T16:03:12.194Z,24.03
2024-05-09T16:05:41.287Z,23.89
2024-05-09T16:08:10.022Z,23.50
2024-05-09T16:10:42.403Z,23.12
2024-05-09T16:13:12.457Z,23.01
2024-05-09T16:15:40.704Z,22.83
2024-05-09T16:18:08.754Z,22.62
2024-05-09T16:20:40.443Z,22.60
2024-05-09T16:23:10.590Z,22.53
2024-05-09T16:25:39.370Z,22.36
2024-05-09T16:28:10.406Z,22.25
2024-05-09T16:30:39.820Z,22.07
2024-05-09T16:33:08.628Z,22.08
2024-05-09T16:35:39.154Z,22.11
2024-05-09T16:38:06.812Z,21.78
2024-05-09T16:40:39.101Z,21.38
2024-05-09T16:43:12.715Z,21.18
2024-05-09T16:45:41.415Z,21.02
2024-05-09T16:48:09.223Z,20.90
2024-05-09T16:50:37.495Z,20.65
2024-05-09T16:53:05.979Z,20.55
2024-05-09T16:55:35.448Z,20.42
2024-05-09T16:58:03.518Z,20.30
2024-05-09T17:00:39.774Z,20.02
2024-05-09T17:03:15.482Z,19.70
2024-05-09T17:05:47.166Z,19.57
2024-05-09T17:08:19.184Z,19.40
2024-05-09T17:10:50.484Z,19.21
2024-05-09T17:13:19.361Z,18.96
2024-05-09T17:15:47.580Z,18.56
2024-05-09T17:18:15.686Z,18.12
2024-05-09T17:20:43.559Z,17.63
2024-05-09T17:23:14.504Z,17.14
2024-05-09T17:25:42.521Z,16.60
2024-05-09T17:28:10.481Z,16.16
2024-05-09T17:30:40.031Z,15.72
2024-05-09T17:33:10.531Z,15.26
2024-05-09T17:35:39.192Z,14.86
2024-05-09T17:38:06.861Z,14.50
2024-05-09T17:40:36.966Z,14.16
2024-05-09T17:43:08.884Z,13.86
2024-05-09T17:45:39.705Z,13.62
2024-05-09T17:48:09.529Z,13.37
2024-05-09T17:50:38.138Z,13.13
2024-05-09T17:53:06.960Z,12.92
2024-05-09T17:55:35.221Z,12.73
2024-05-09T17:58:04.121Z,12.54
2024-05-09T18:00:38.677Z,12.32
2024-05-09T18:03:13.242Z,12.13
2024-05-09T18:05:42.877Z,12.01
2024-05-09T18:08:12.502Z,11.89
2024-05-09T18:10:41.081Z,11.77
2024-05-09T18:13:09.822Z,11.66
2024-05-09T18:15:38.028Z,11.53
2024-05-09T18:18:06.008Z,11.41
2024-05-09T18:20:41.841Z,11.29
2024-05-09T18:23:14.354Z,11.17
2024-05-09T18:25:43.367Z,11.06
2024-05-09T18:28:11.680Z,10.96
2024-05-09T18:30:39.959Z,10.88
2024-05-09T18:33:09.593Z,10.81
2024-05-09T18:35:37.588Z,10.74
2024-05-09T18:38:05.737Z,10.66
2024-05-09T18:40:36.652Z,10.58
2024-05-09T18:43:07.614Z,10.48
2024-05-09T18:45:38.382Z,10.40
2024-05-09T18:48:08.354Z,10.33
2024-05-09T18:50:39.581Z,10.23
2024-05-09T18:53:13.031Z,10.15
2024-05-09T18:55:44.614Z,10.06
2024-05-09T18:58:12.806Z,9.96
2024-05-09T19:00:42.977Z,9.88
2024-05-09T19:03:14.668Z,9.80
2024-05-09T19:05:44.258Z,9.73
2024-05-09T19:08:13.216Z,9.66
2024-05-09T19:10:41.266Z,9.61
2024-05-09T19:13:12.373Z,9.55
2024-05-09T19:15:42.671Z,9.51
2024-05-09T19:18:12.567Z,9.48
2024-05-09T19:20:40.660Z,9.45
2024-05-09T19:23:08.718Z,9.40
2024-05-09T19:25:36.734Z,9.35
2024-05-09T19:28:05.581Z,9.31
2024-05-09T19:30:39.254Z,9.29
2024-05-09T19:33:12.833Z,9.26
2024-05-09T19:35:42.288Z,9.22
2024-05-09T19:38:10.628Z,9.18
2024-05-09T19:40:38.525Z,9.14
2024-05-09T19:43:07.257Z,9.11
2024-05-09T19:45:36.278Z,9.06
2024-05-09T19:48:05.117Z,9.00
2024-05-09T19:50:41.293Z,8.97
2024-05-09T19:53:13.040Z,8.94
2024-05-09T19:55:41.518Z,8.95
2024-05-09T19:58:10.007Z,8.96
2024-05-09T20:00:40.069Z,8.95
2024-05-09T20:03:11.873Z,8.94
2024-05-09T20:05:40.018Z,8.92
2024-05-09T20:08:08.325Z,8.92
2024-05-09T20:10:36.751Z,8.90
2024-05-09T20:13:06.966Z,8.89
2024-05-09T20:15:36.355Z,8.89
2024-05-09T20:18:04.774Z,8.87
2024-05-09T20:20:39.113Z,8.87
2024-05-09T20:23:12.860Z,8.86
2024-05-09T20:25:41.603Z,8.86
2024-05-09T20:28:09.659Z,8.86
2024-05-09T20:30:37.936Z,8.86
2024-05-09T20:33:07.599Z,8.86
2024-05-09T20:35:36.692Z,8.84
2024-05-09T20:38:05.378Z,8.82
2024-05-09T20:40:36.901Z,8.79
2024-05-09T20:43:08.030Z,8.75
2024-05-09T20:45:36.491Z,8.72
2024-05-09T20:48:05.608Z,8.68
2024-05-09T20:50:39.078Z,8.62
2024-05-09T20:53:14.446Z,8.56
2024-05-09T20:55:43.707Z,8.53
2024-05-09T20:58:11.844Z,8.48
2024-05-09T21:00:43.260Z,8.43
2024-05-09T21:03:14.601Z,8.38
2024-05-09T21:05:44.002Z,8.35
2024-05-09T21:08:11.928Z,8.32
2024-05-09T21:10:39.547Z,8.29
2024-05-09T21:13:07.687Z,8.25
2024-05-09T21:15:36.118Z,8.23
2024-05-09T21:18:04.570Z,8.20
2024-05-09T21:20:34.871Z,8.17
2024-05-09T21:23:03.091Z,8.15
2024-05-09T21:25:31.189Z,8.12
2024-05-09T21:27:59.731Z,8.10
2024-05-09T21:30:33.207Z,8.08
2024-05-09T21:33:10.191Z,8.07
2024-05-09T21:35:39.827Z,8.08
2024-05-09T21:38:08.204Z,8.09
2024-05-09T21:40:37.182Z,8.06
2024-05-09T21:43:06.849Z,8.03
2024-05-09T21:45:35.165Z,7.99
2024-05-09T21:48:03.770Z,7.95
2024-05-09T21:50:38.675Z,7.91
2024-05-09T21:53:13.437Z,7.86
2024-05-09T21:55:42.447Z,7.82
2024-05-09T21:58:10.454Z,7.79
2024-05-09T22:00:45.532Z,7.77
2024-05-09T22:03:13.656Z,7.76
2024-05-09T22:05:44.049Z,7.76
2024-05-09T22:08:11.845Z,7.78
2024-05-09T22:10:39.442Z,7.77
2024-05-09T22:13:08.571Z,7.77
2024-05-09T22:15:37.800Z,7.76
2024-05-09T22:18:08.079Z,7.76
2024-05-09T22:20:39.073Z,7.75
2024-05-09T22:23:08.464Z,7.73
2024-05-09T22:25:38.534Z,7.71
2024-05-09T22:28:07.004Z,7.69
2024-05-09T22:30:38.913Z,7.65
2024-05-09T22:33:08.762Z,7.62
2024-05-09T22:35:38.248Z,7.60
2024-05-09T22:38:06.209Z,7.57
2024-05-09T22:40:42.998Z,7.55
2024-05-09T22:43:21.094Z,7.54
2024-05-09T22:45:50.631Z,7.53
2024-05-09T22:48:19.144Z,7.51
2024-05-09T22:50:46.855Z,7.51
2024-05-09T22:53:14.555Z,7.53
2024-05-09T22:55:43.035Z,7.53
2024-05-09T22:58:10.547Z,7.51
2024-05-09T23:00:38.973Z,7.45
2024-05-09T23:03:06.928Z,7.38
2024-05-09T23:05:34.650Z,7.32
2024-05-09T23:08:02.683Z,7.26
2024-05-09T23:10:35.970Z,7.21
2024-05-09T23:13:08.780Z,7.16
2024-05-09T23:15:38.756Z,7.12
2024-05-09T23:18:07.583Z,7.09
2024-05-09T23:20:39.058Z,7.05
2024-05-09T23:23:08.504Z,7.02
2024-05-09T23:25:36.767Z,6.99
2024-05-09T23:28:05.809Z,7.02
2024-05-09T23:30:38.356Z,7.03
2024-05-09T23:33:10.461Z,7.07
2024-05-09T23:35:41.220Z,7.10
2024-05-09T23:38:08.660Z,7.13
2024-05-09T23:40:39.950Z,7.13
2024-05-09T23:43:10.535Z,7.11
2024-05-09T23:45:38.690Z,7.07
2024-05-09T23:48:08.043Z,7.04
2024-05-09T23:50:38.145Z,7.04
2024-05-09T23:53:08.648Z,7.03
2024-05-09T23:55:38.138Z,7.03
2024-05-09T23:58:06.632Z,7.02
